createdAt,value
2023-02-15T00:00:19.137Z,20.17
2023-02-15T00:02:47.235Z,21.02
2023-02-15T00:05:17.123Z,20.35
2023-02-15T00:07:45.224Z,19.70
2023-02-15T00:10:13.380Z,21.77
2023-02-15T00:12:41.451Z,20.45
2023-02-15T00:15:10.312Z,20.23
2023-02-15T00:17:38.310Z,20.27
2023-02-15T00:20:08.264Z,20.08
2023-02-15T00:22:37.670Z,19.73
2023-02-15T00:25:06.736Z,19.63
2023-02-15T00:27:35.663Z,21.00
2023-02-15T00:30:03.841Z,20.85
2023-02-15T00:32:32.365Z,22.00
2023-02-15T00:35:00.387Z,21.48
2023-02-15T00:37:28.431Z,22.05
2023-02-15T00:39:57.821Z,22.40
2023-02-15T00:42:26.141Z,22.38
2023-02-15T00:44:54.169Z,22.52
2023-02-15T00:47:22.260Z,22.25
2023-02-15T00:49:50.313Z,22.58
2023-02-15T00:52:18.367Z,22.33
2023-02-15T00:54:46.411Z,23.27
2023-02-15T00:57:15.834Z,23.33
2023-02-15T00:59:43.869Z,23.08
2023-02-15T01:02:14.917Z,23.85
2023-02-15T01:04:43.010Z,21.35
2023-02-15T01:07:11.093Z,19.45
2023-02-15T01:09:39.148Z,19.92
2023-02-15T01:12:07.364Z,19.42
2023-02-15T01:14:36.792Z,19.70
2023-02-15T01:17:04.816Z,20.80
2023-02-15T01:19:32.880Z,20.58
2023-02-15T01:22:01.516Z,19.75
2023-02-15T01:24:29.647Z,19.75
2023-02-15T01:26:57.742Z,19.67
2023-02-15T01:29:25.800Z,20.65
2023-02-15T01:31:55.273Z,20.00
2023-02-15T01:34:23.446Z,20.42
2023-02-15T01:36:51.512Z,20.23
2023-02-15T01:39:19.955Z,19.50
2023-02-15T01:41:47.997Z,18.73
2023-02-15T01:44:54.900Z,19.38
2023-02-15T01:47:34.105Z,16.98
2023-02-15T01:50:12.133Z,17.90
2023-02-15T01:52:47.780Z,20.10
2023-02-15T01:55:17.369Z,19.67
2023-02-15T01:57:48.601Z,20.80
2023-02-15T02:00:18.506Z,18.92
2023-02-15T02:02:54.774Z,20.15
2023-02-15T02:05:23.080Z,20.02
2023-02-15T02:07:56.805Z,18.35
2023-02-15T02:10:27.116Z,18.25
2023-02-15T02:13:00.636Z,17.92
2023-02-15T02:15:43.965Z,17.90
2023-02-15T02:18:34.773Z,17.97
2023-02-15T02:22:06.906Z,18.42
2023-02-15T02:25:21.039Z,17.88
2023-02-15T02:27:58.355Z,17.88
2023-02-15T02:31:10.488Z,17.43
2023-02-15T02:34:06.323Z,16.95
2023-02-15T02:36:45.816Z,16.65
2023-02-15T02:39:32.877Z,17.05
2023-02-15T02:42:11.633Z,16.38
2023-02-15T02:44:45.644Z,16.50
2023-02-15T02:47:21.874Z,16.67
2023-02-15T02:50:01.096Z,15.75
2023-02-15T02:52:43.867Z,16.08
2023-02-15T02:55:19.352Z,16.10
2023-02-15T02:57:56.329Z,16.40
2023-02-15T03:00:29.104Z,16.20
2023-02-15T03:03:05.986Z,16.48
2023-02-15T03:05:39.666Z,16.95
2023-02-15T03:08:10.914Z,17.00
2023-02-15T03:10:42.463Z,17.42
2023-02-15T03:13:10.916Z,17.10
2023-02-15T03:16:01.695Z,16.55
2023-02-15T03:18:38.143Z,15.90
2023-02-15T03:21:22.818Z,16.05
2023-02-15T03:24:02.967Z,16.20
2023-02-15T03:26:34.156Z,15.57
2023-02-15T03:29:05.833Z,16.25
2023-02-15T03:31:40.344Z,16.35
2023-02-15T03:34:13.705Z,15.65
2023-02-15T03:36:51.851Z,15.07
2023-02-15T03:39:29.339Z,17.40
2023-02-15T03:42:06.005Z,16.80
2023-02-15T03:44:44.552Z,16.30
2023-02-15T03:47:20.225Z,15.57
2023-02-15T03:49:56.082Z,15.90
2023-02-15T03:52:28.267Z,15.70
2023-02-15T03:54:56.840Z,14.77
2023-02-15T03:57:46.508Z,14.88
2023-02-15T04:00:36.431Z,15.73
2023-02-15T04:03:26.033Z,15.02
2023-02-15T04:05:54.198Z,15.20
2023-02-15T04:08:43.991Z,14.50
2023-02-15T04:11:11.061Z,15.07
2023-02-15T04:13:39.222Z,15.55
2023-02-15T04:16:07.869Z,15.75
2023-02-15T04:18:57.046Z,16.27
2023-02-15T04:21:44.854Z,16.63
2023-02-15T04:24:32.950Z,15.80
2023-02-15T04:27:02.020Z,15.40
2023-02-15T04:29:37.199Z,16.02
2023-02-15T04:32:05.594Z,16.15
2023-02-15T04:34:33.624Z,16.75
2023-02-15T04:37:01.694Z,16.30
2023-02-15T04:39:31.080Z,16.00
2023-02-15T04:41:59.116Z,15.55
2023-02-15T04:44:27.483Z,16.03
2023-02-15T04:46:55.749Z,15.35
2023-02-15T04:49:23.797Z,16.17
2023-02-15T04:51:56.645Z,16.05
2023-02-15T04:54:24.853Z,15.13
2023-02-15T04:56:54.286Z,15.55
2023-02-15T04:59:22.340Z,16.08
2023-02-15T05:01:50.575Z,15.98
2023-02-15T05:04:18.727Z,15.77
2023-02-15T05:06:46.995Z,15.95
2023-02-15T05:09:15.856Z,16.95
2023-02-15T05:11:44.137Z,18.00
2023-02-15T05:14:13.622Z,16.80
2023-02-15T05:16:41.917Z,16.60
2023-02-15T05:19:10.216Z,16.30
2023-02-15T05:21:38.313Z,16.90
2023-02-15T05:24:27.409Z,17.85
2023-02-15T05:27:13.265Z,17.05
2023-02-15T05:29:45.413Z,18.10
2023-02-15T05:32:15.863Z,18.35
2023-02-15T05:34:44.224Z,18.45
2023-02-15T05:37:12.248Z,19.58
2023-02-15T05:39:40.287Z,19.07
2023-02-15T05:42:08.412Z,18.10
2023-02-15T05:44:36.485Z,21.08
2023-02-15T05:47:08.030Z,19.85
2023-02-15T05:49:36.938Z,19.48
2023-02-15T05:52:05.775Z,20.58
2023-02-15T05:54:33.924Z,19.77
2023-02-15T05:57:02.262Z,19.90
2023-02-15T05:59:30.309Z,19.58
2023-02-15T06:01:58.365Z,21.60
2023-02-15T06:04:28.164Z,20.50
2023-02-15T06:06:56.176Z,21.40
2023-02-15T06:09:24.200Z,22.30
2023-02-15T06:11:52.348Z,22.58
2023-02-15T06:14:20.391Z,22.67
2023-02-15T06:16:48.495Z,22.65
2023-02-15T06:19:16.741Z,23.52
2023-02-15T06:21:47.034Z,22.35
2023-02-15T06:24:15.574Z,23.55
2023-02-15T06:26:46.627Z,21.48
2023-02-15T06:29:14.852Z,21.98
2023-02-15T06:31:43.102Z,21.90
2023-02-15T06:34:11.391Z,22.58
2023-02-15T06:36:39.489Z,22.65
2023-02-15T06:39:08.876Z,23.60
2023-02-15T06:41:36.985Z,22.23
2023-02-15T06:44:05.551Z,21.75
2023-02-15T06:46:33.636Z,22.58
2023-02-15T06:49:01.880Z,23.38
2023-02-15T06:51:29.922Z,23.40
2023-02-15T06:53:58.010Z,22.65
2023-02-15T06:56:27.815Z,22.08
2023-02-15T06:58:56.002Z,22.00
2023-02-15T07:01:27.067Z,21.60
2023-02-15T07:03:55.226Z,21.73
2023-02-15T07:06:23.289Z,22.02
2023-02-15T07:08:51.480Z,21.73
2023-02-15T07:11:37.368Z,23.55
2023-02-15T07:14:06.829Z,24.17
2023-02-15T07:16:34.850Z,23.10
2023-02-15T07:19:02.914Z,24.40
2023-02-15T07:21:31.032Z,24.40
2023-02-15T07:24:00.026Z,24.90
2023-02-15T07:26:28.499Z,25.73
2023-02-15T07:28:57.967Z,25.02
2023-02-15T07:31:27.356Z,25.00
2023-02-15T07:33:55.387Z,24.70
2023-02-15T07:36:23.458Z,26.10
2023-02-15T07:38:51.475Z,25.42
2023-02-15T07:41:19.577Z,25.05
2023-02-15T07:43:47.707Z,24.17
2023-02-15T07:46:18.805Z,24.83
2023-02-15T07:48:49.034Z,25.17
2023-02-15T07:51:17.570Z,25.77
2023-02-15T07:53:45.697Z,26.73
2023-02-15T07:56:15.874Z,26.85
2023-02-15T07:58:53.220Z,26.63
2023-02-15T08:01:24.766Z,25.27
2023-02-15T08:03:55.050Z,25.00
2023-02-15T08:06:25.283Z,24.45
2023-02-15T08:08:54.007Z,23.30
2023-02-15T08:11:29.948Z,21.75
2023-02-15T08:14:01.047Z,22.33
2023-02-15T08:16:33.769Z,21.67
2023-02-15T08:19:05.919Z,23.52
2023-02-15T08:21:36.950Z,21.75
2023-02-15T08:24:08.134Z,21.10
2023-02-15T08:26:37.424Z,22.15
2023-02-15T08:29:07.474Z,20.10
2023-02-15T08:31:38.339Z,19.63
2023-02-15T08:34:08.118Z,18.65
2023-02-15T08:36:36.691Z,19.50
2023-02-15T08:39:08.293Z,20.08
2023-02-15T08:41:38.343Z,19.92
2023-02-15T08:44:08.838Z,20.55
2023-02-15T08:46:40.071Z,19.83
2023-02-15T08:49:11.595Z,19.17
2023-02-15T08:51:40.951Z,18.95
2023-02-15T08:54:14.015Z,18.00
2023-02-15T08:56:44.877Z,18.13
2023-02-15T08:59:18.034Z,18.45
2023-02-15T09:01:46.793Z,16.67
2023-02-15T09:04:16.749Z,16.38
2023-02-15T09:06:48.753Z,16.60
2023-02-15T09:09:17.831Z,17.00
2023-02-15T09:11:49.080Z,16.73
2023-02-15T09:14:21.132Z,16.10
2023-02-15T09:16:52.521Z,16.40
2023-02-15T09:19:24.138Z,17.17
2023-02-15T09:21:52.490Z,16.30
2023-02-15T09:24:20.804Z,16.05
2023-02-15T09:26:50.891Z,16.03
2023-02-15T09:29:20.878Z,16.98
2023-02-15T09:31:51.715Z,16.70
2023-02-15T09:34:24.438Z,15.60
2023-02-15T09:36:53.141Z,15.15
2023-02-15T09:39:24.504Z,14.73
2023-02-15T09:42:44.537Z,14.68
2023-02-15T09:45:54.553Z,14.80
2023-02-15T09:48:41.677Z,14.55
2023-02-15T09:51:49.960Z,15.52
2023-02-15T09:54:40.462Z,14.90
2023-02-15T09:57:22.102Z,15.30
2023-02-15T10:00:05.098Z,14.00
2023-02-15T10:02:55.180Z,14.10
2023-02-15T10:05:40.230Z,14.70
2023-02-15T10:08:47.196Z,14.68
2023-02-15T10:11:43.042Z,14.00
2023-02-15T10:14:57.150Z,13.40
2023-02-15T10:17:46.928Z,13.55
2023-02-15T10:20:30.702Z,13.07
2023-02-15T10:23:34.588Z,13.43
2023-02-15T10:26:14.990Z,13.40
2023-02-15T10:28:50.742Z,13.60
2023-02-15T10:31:27.355Z,13.07
2023-02-15T10:34:17.378Z,13.45
2023-02-15T10:37:23.116Z,13.60
2023-02-15T10:40:09.964Z,13.48
2023-02-15T10:43:03.179Z,12.75
2023-02-15T10:45:44.410Z,13.25
2023-02-15T10:48:52.222Z,12.60
2023-02-15T10:51:38.921Z,12.45
2023-02-15T10:54:19.786Z,12.35
2023-02-15T10:56:58.857Z,12.13
2023-02-15T10:59:54.299Z,12.88
2023-02-15T11:02:42.583Z,13.45
2023-02-15T11:05:43.625Z,12.77
2023-02-15T11:08:14.031Z,12.85
2023-02-15T11:10:49.289Z,12.80
2023-02-15T11:13:21.890Z,12.50
2023-02-15T11:15:55.738Z,12.35
2023-02-15T11:18:34.647Z,12.60
2023-02-15T11:21:12.407Z,12.25
2023-02-15T11:23:46.821Z,11.57
2023-02-15T11:26:21.735Z,11.23
2023-02-15T11:28:59.269Z,11.83
2023-02-15T11:31:37.465Z,12.13
2023-02-15T11:34:17.904Z,12.32
2023-02-15T11:36:48.532Z,12.70
2023-02-15T11:39:20.270Z,11.68
2023-02-15T11:41:55.794Z,11.85
2023-02-15T11:44:34.243Z,12.20
2023-02-15T11:47:03.541Z,12.38
2023-02-15T11:49:34.893Z,12.40
2023-02-15T11:52:08.384Z,12.18
2023-02-15T11:54:43.437Z,12.38
2023-02-15T11:57:21.789Z,13.23
2023-02-15T12:00:00.514Z,12.98
2023-02-15T12:02:31.020Z,12.32
2023-02-15T12:05:05.092Z,13.20
2023-02-15T12:07:39.576Z,12.75
2023-02-15T12:10:21.398Z,13.00
2023-02-15T12:12:49.452Z,13.33
2023-02-15T12:15:36.190Z,13.02
2023-02-15T12:18:04.601Z,12.55
2023-02-15T12:20:35.732Z,13.02
2023-02-15T12:23:08.196Z,13.10
2023-02-15T12:25:42.797Z,13.00
2023-02-15T12:28:28.925Z,13.43
2023-02-15T12:31:00.404Z,12.97
2023-02-15T12:33:33.039Z,12.97
2023-02-15T12:36:06.427Z,13.20
2023-02-15T12:38:35.311Z,13.50
2023-02-15T12:41:06.908Z,13.25
2023-02-15T12:43:37.374Z,13.32
2023-02-15T12:46:27.689Z,14.00
2023-02-15T12:49:20.562Z,13.27
2023-02-15T12:51:52.076Z,13.13
2023-02-15T12:54:33.041Z,13.10
2023-02-15T12:57:14.320Z,13.02
2023-02-15T12:59:51.834Z,12.38
2023-02-15T13:02:29.271Z,13.00
2023-02-15T13:05:06.557Z,12.70
2023-02-15T13:07:35.209Z,12.65
2023-02-15T13:10:03.610Z,12.75
2023-02-15T13:12:34.572Z,13.20
2023-02-15T13:15:05.495Z,12.90
2023-02-15T13:17:35.847Z,12.57
2023-02-15T13:20:10.373Z,12.60
2023-02-15T13:22:45.190Z,12.88
2023-02-15T13:25:21.482Z,12.88
2023-02-15T13:27:56.847Z,12.80
2023-02-15T13:30:30.033Z,12.80
2023-02-15T13:33:05.725Z,13.27
2023-02-15T13:35:44.705Z,12.80
2023-02-15T13:38:44.455Z,12.73
2023-02-15T13:41:18.142Z,12.95
2023-02-15T13:43:59.502Z,12.40
2023-02-15T13:47:00.136Z,13.32
2023-02-15T13:49:58.019Z,13.38
2023-02-15T13:52:30.754Z,13.32
2023-02-15T13:55:28.497Z,13.35
2023-02-15T13:58:29.032Z,13.20
2023-02-15T14:01:10.896Z,13.40
2023-02-15T14:04:10.821Z,13.38
2023-02-15T14:07:17.680Z,12.95
2023-02-15T14:10:02.657Z,13.10
2023-02-15T14:12:50.814Z,13.80
2023-02-15T14:15:34.703Z,13.43
2023-02-15T14:18:18.768Z,13.73
2023-02-15T14:21:04.628Z,13.32
2023-02-15T14:23:54.519Z,13.95
2023-02-15T14:26:33.542Z,13.82
2023-02-15T14:29:27.368Z,13.90
2023-02-15T14:32:02.005Z,14.25
2023-02-15T14:34:44.095Z,14.00
2023-02-15T14:37:18.404Z,13.82
2023-02-15T14:40:19.049Z,13.95
2023-02-15T14:42:57.831Z,13.93
2023-02-15T14:45:37.939Z,14.07
2023-02-15T14:48:16.856Z,13.25
2023-02-15T14:50:47.792Z,13.75
2023-02-15T14:53:40.090Z,13.48
2023-02-15T14:56:19.553Z,13.32
2023-02-15T14:59:22.008Z,13.27
2023-02-15T15:01:59.448Z,13.13
2023-02-15T15:04:34.984Z,14.20
2023-02-15T15:07:16.178Z,13.93
2023-02-15T15:09:50.380Z,13.40
2023-02-15T15:12:41.924Z,14.20
2023-02-15T15:15:15.802Z,13.98
2023-02-15T15:18:02.100Z,14.18
2023-02-15T15:20:51.237Z,14.23
2023-02-15T15:23:50.057Z,13.77
2023-02-15T15:26:41.736Z,15.13
2023-02-15T15:29:11.166Z,14.10
2023-02-15T15:31:54.622Z,14.50
2023-02-15T15:35:02.806Z,14.30
2023-02-15T15:38:04.185Z,14.33
2023-02-15T15:40:59.155Z,15.00
2023-02-15T15:44:13.696Z,15.35
2023-02-15T15:47:17.935Z,14.98
2023-02-15T15:49:46.217Z,14.68
2023-02-15T15:52:18.830Z,14.48
2023-02-15T15:54:49.962Z,14.35
2023-02-15T15:57:27.499Z,15.10
2023-02-15T15:59:58.167Z,14.60
2023-02-15T16:02:29.079Z,14.30
2023-02-15T16:05:09.188Z,14.50
2023-02-15T16:07:37.424Z,14.45
2023-02-15T16:10:08.984Z,15.20
2023-02-15T16:12:41.134Z,14.77
2023-02-15T16:15:20.356Z,15.77
2023-02-15T16:17:55.838Z,15.15
2023-02-15T16:20:27.605Z,14.82
2023-02-15T16:23:14.609Z,22.75
2023-02-15T16:25:57.073Z,25.45
2023-02-15T16:28:25.324Z,27.17
2023-02-15T16:31:11.159Z,22.35
2023-02-15T16:33:45.739Z,27.95
2023-02-15T16:36:22.828Z,22.67
2023-02-15T16:39:22.131Z,20.73
2023-02-15T16:41:56.301Z,17.95
2023-02-15T16:44:24.528Z,22.98
2023-02-15T16:46:55.826Z,18.95
2023-02-15T16:49:29.758Z,17.17
2023-02-15T16:52:02.936Z,17.85
2023-02-15T16:54:33.186Z,20.90
2023-02-15T16:57:01.576Z,20.00
2023-02-15T16:59:40.546Z,20.10
2023-02-15T17:02:37.153Z,17.17
2023-02-15T17:05:20.716Z,16.55
2023-02-15T17:08:07.659Z,16.50
2023-02-15T17:10:42.488Z,17.55
2023-02-15T17:13:13.957Z,18.15
2023-02-15T17:15:45.486Z,19.88
2023-02-15T17:18:20.143Z,19.80
2023-02-15T17:20:54.142Z,21.83
2023-02-15T17:23:30.936Z,19.65
2023-02-15T17:26:00.957Z,18.92
2023-02-15T17:28:33.192Z,17.50
2023-02-15T17:31:02.017Z,17.58
2023-02-15T17:33:40.175Z,16.65
2023-02-15T17:36:14.682Z,17.38
2023-02-15T17:39:03.512Z,16.90
2023-02-15T17:41:35.029Z,16.88
2023-02-15T17:44:04.757Z,16.88
2023-02-15T17:46:37.646Z,16.42
2023-02-15T17:49:06.510Z,16.58
2023-02-15T17:51:36.405Z,18.08
2023-02-15T17:54:22.931Z,16.42
2023-02-15T17:56:50.932Z,18.33
2023-02-15T17:59:19.047Z,17.98
2023-02-15T18:02:09.174Z,17.63
2023-02-15T18:04:56.240Z,16.40
2023-02-15T18:07:43.339Z,17.95
2023-02-15T18:10:33.830Z,16.17
2023-02-15T18:13:01.901Z,19.93
2023-02-15T18:15:30.379Z,26.55
2023-02-15T18:17:58.546Z,21.20
2023-02-15T18:20:34.195Z,21.13
2023-02-15T18:23:04.186Z,19.98
2023-02-15T18:25:32.379Z,19.38
2023-02-15T18:28:00.478Z,23.00
2023-02-15T18:30:28.966Z,22.60
2023-02-15T18:33:00.340Z,18.45
2023-02-15T18:35:33.113Z,19.65
2023-02-15T18:38:03.671Z,21.13
2023-02-15T18:40:31.922Z,25.05
2023-02-15T18:42:59.996Z,28.63
2023-02-15T18:45:32.858Z,23.98
2023-02-15T18:48:01.180Z,20.73
2023-02-15T18:50:34.860Z,19.23
2023-02-15T18:53:07.527Z,20.43
2023-02-15T18:55:36.592Z,21.83
2023-02-15T18:58:05.085Z,23.20
2023-02-15T19:00:35.866Z,22.27
2023-02-15T19:03:04.708Z,21.60
2023-02-15T19:05:34.358Z,22.42
2023-02-15T19:08:04.916Z,22.90
2023-02-15T19:10:34.864Z,23.23
2023-02-15T19:13:02.918Z,25.80
2023-02-15T19:15:32.019Z,41.83
2023-02-15T19:18:00.153Z,29.67
2023-02-15T19:20:39.266Z,22.08
2023-02-15T19:23:19.310Z,22.05
2023-02-15T19:25:50.613Z,20.15
2023-02-15T19:28:25.550Z,22.35
2023-02-15T19:30:53.685Z,22.15
2023-02-15T19:33:23.664Z,21.00
2023-02-15T19:35:57.137Z,21.25
2023-02-15T19:38:31.695Z,20.58
2023-02-15T19:41:06.095Z,18.48
2023-02-15T19:43:35.975Z,20.70
2023-02-15T19:46:04.519Z,19.95
2023-02-15T19:48:32.855Z,18.17
2023-02-15T19:51:00.993Z,20.23
2023-02-15T19:53:30.825Z,23.10
2023-02-15T19:55:58.964Z,26.95
2023-02-15T19:58:27.039Z,30.60
2023-02-15T20:00:55.245Z,21.70
2023-02-15T20:03:23.459Z,19.80
2023-02-15T20:05:51.625Z,20.25
2023-02-15T20:08:23.765Z,19.63
2023-02-15T20:10:53.595Z,19.55
2023-02-15T20:13:22.289Z,18.13
2023-02-15T20:15:51.777Z,16.75
2023-02-15T20:18:22.388Z,31.70
2023-02-15T20:20:54.727Z,35.00
2023-02-15T20:23:30.441Z,44.30
2023-02-15T20:26:03.514Z,35.63
2023-02-15T20:28:32.836Z,47.03
2023-02-15T20:31:01.580Z,47.45
2023-02-15T20:33:29.925Z,45.55
2023-02-15T20:35:59.623Z,35.83
2023-02-15T20:38:32.332Z,23.65
2023-02-15T20:41:19.922Z,19.95
2023-02-15T20:43:48.515Z,20.15
2023-02-15T20:46:16.595Z,26.92
2023-02-15T20:48:44.713Z,32.13
2023-02-15T20:51:19.673Z,31.05
2023-02-15T20:53:49.153Z,37.20
2023-02-15T20:56:22.836Z,29.90
2023-02-15T20:58:52.221Z,30.58
2023-02-15T21:01:21.136Z,23.77
2023-02-15T21:03:49.507Z,24.45
2023-02-15T21:06:18.887Z,24.00
2023-02-15T21:08:47.017Z,24.45
2023-02-15T21:11:21.796Z,22.65
2023-02-15T21:13:51.572Z,21.03
2023-02-15T21:16:20.102Z,19.90
2023-02-15T21:18:48.330Z,18.57
2023-02-15T21:21:24.483Z,17.80
2023-02-15T21:23:54.267Z,17.95
2023-02-15T21:26:24.542Z,17.35
2023-02-15T21:28:52.750Z,17.40
2023-02-15T21:31:23.610Z,17.35
2023-02-15T21:33:53.337Z,17.80
2023-02-15T21:36:26.804Z,22.75
2023-02-15T21:38:54.985Z,22.25
2023-02-15T21:41:45.250Z,25.67
2023-02-15T21:44:36.759Z,28.52
2023-02-15T21:47:22.353Z,30.15
2023-02-15T21:49:50.448Z,31.83
2023-02-15T21:52:23.453Z,36.90
2023-02-15T21:54:51.559Z,27.58
2023-02-15T21:57:22.404Z,27.65
2023-02-15T21:59:50.661Z,26.57
2023-02-15T22:02:31.301Z,24.60
2023-02-15T22:05:00.285Z,29.88
2023-02-15T22:07:28.336Z,29.30
2023-02-15T22:09:56.390Z,30.30
2023-02-15T22:12:25.919Z,30.45
2023-02-15T22:14:55.260Z,26.57
2023-02-15T22:17:27.480Z,28.13
2023-02-15T22:19:56.045Z,26.42
2023-02-15T22:22:25.941Z,23.30
2023-02-15T22:24:54.329Z,27.20
2023-02-15T22:27:26.918Z,21.77
2023-02-15T22:29:56.371Z,20.17
2023-02-15T22:32:27.258Z,20.85
2023-02-15T22:34:55.919Z,20.52
2023-02-15T22:37:24.110Z,19.77
2023-02-15T22:39:52.223Z,20.48
2023-02-15T22:42:27.308Z,20.50
2023-02-15T22:44:57.324Z,20.20
2023-02-15T22:47:29.231Z,20.55
2023-02-15T22:49:57.361Z,20.85
2023-02-15T22:52:25.592Z,21.73
2023-02-15T22:54:53.658Z,23.77
2023-02-15T22:57:30.741Z,23.30
2023-02-15T23:00:00.543Z,23.45
2023-02-15T23:02:28.711Z,23.60
2023-02-15T23:04:56.808Z,25.13
2023-02-15T23:07:24.894Z,24.17
2023-02-15T23:09:52.948Z,23.42
2023-02-15T23:12:28.036Z,23.55
2023-02-15T23:14:57.491Z,25.67
2023-02-15T23:17:25.568Z,24.70
2023-02-15T23:19:53.628Z,23.10
2023-02-15T23:22:22.274Z,23.15
2023-02-15T23:24:54.002Z,22.90
2023-02-15T23:27:39.903Z,22.10
2023-02-15T23:30:15.587Z,22.58
2023-02-15T23:32:43.690Z,22.67
2023-02-15T23:35:16.456Z,22.65
2023-02-15T23:37:44.680Z,23.05
2023-02-15T23:40:32.890Z,23.85
2023-02-15T23:43:01.064Z,22.83
2023-02-15T23:45:34.563Z,23.00
2023-02-15T23:48:20.153Z,23.05
2023-02-15T23:50:48.227Z,23.10
2023-02-15T23:53:16.299Z,22.80
2023-02-15T23:55:45.724Z,23.00
2023-02-15T23:58:19.411Z,23.38
